Time;durP1;ratioP1;P1;durP2;ratioP2;P2;SDS_P1;SDS_P2;PMS_P1;PMS_P2;Temp;Humidity;BMP_temperature;BMP_pressure;BME280_temperature;BME280_humidity;BME280_pressure;Samples;Min_cycle;Max_cycle;Signal;HPM_P1;HPM_P2
2023/07/05 00:02:13;;;;;;;21.87;20.27;;;17.20;99.90;;;;;;5025607;28;20534;-64
2023/07/05 00:04:41;;;;;;;21.30;19.80;;;17.10;99.90;;;;;;5035532;28;20878;-66
2023/07/05 00:07:08;;;;;;;21.13;19.73;;;17.00;99.90;;;;;;5040116;28;20489;-65
2023/07/05 00:09:35;;;;;;;20.30;18.90;;;17.00;99.90;;;;;;5037242;28;20521;-65
2023/07/05 00:12:04;;;;;;;19.30;18.10;;;16.90;99.90;;;;;;5047820;28;20479;-66
2023/07/05 00:14:31;;;;;;;19.80;18.60;;;16.90;99.90;;;;;;5036357;28;20534;-66
2023/07/05 00:16:57;;;;;;;19.80;18.60;;;16.90;99.90;;;;;;5039117;28;20522;-65
2023/07/05 00:19:25;;;;;;;19.07;17.90;;;16.90;99.90;;;;;;5042834;28;20818;-65
2023/07/05 00:21:51;;;;;;;18.67;17.57;;;16.80;99.90;;;;;;5033684;28;21148;-65
2023/07/05 00:24:18;;;;;;;19.10;18.00;;;16.80;99.90;;;;;;5042519;28;20511;-65
2023/07/05 00:26:45;;;;;;;17.87;16.87;;;16.80;99.90;;;;;;5040188;28;20497;-66
2023/07/05 00:29:15;;;;;;;18.07;17.10;;;16.80;99.90;;;;;;5037240;28;20559;-65
2023/07/05 00:31:41;;;;;;;18.23;17.23;;;16.80;99.90;;;;;;5044839;28;20471;-65
2023/07/05 00:34:08;;;;;;;16.17;15.37;;;16.70;99.90;;;;;;5044158;28;20460;-66
2023/07/05 00:36:36;;;;;;;15.90;15.20;;;16.70;99.90;;;;;;5041102;28;20455;-65
2023/07/05 00:39:03;;;;;;;15.60;14.90;;;16.70;99.90;;;;;;5040648;28;20468;-66
2023/07/05 00:41:30;;;;;;;15.20;14.50;;;16.70;99.90;;;;;;5037775;28;20769;-66
2023/07/05 00:43:57;;;;;;;15.47;14.77;;;16.70;99.90;;;;;;5038871;28;20463;-64
2023/07/05 00:46:27;;;;;;;15.90;15.10;;;16.70;99.90;;;;;;5040479;28;20495;-65
2023/07/05 00:48:57;;;;;;;15.50;14.80;;;16.70;99.90;;;;;;5036560;28;20460;-66
2023/07/05 00:51:29;;;;;;;16.33;15.43;;;16.70;99.90;;;;;;5038910;28;20470;-66
2023/07/05 00:53:59;;;;;;;15.20;14.50;;;16.70;99.90;;;;;;5042900;28;20469;-66
2023/07/05 00:56:32;;;;;;;14.63;14.00;;;16.70;99.90;;;;;;5038247;28;20503;-64
2023/07/05 00:58:59;;;;;;;14.87;14.17;;;16.70;99.90;;;;;;5042170;28;20459;-65
2023/07/05 01:01:29;;;;;;;14.67;14.07;;;16.70;99.90;;;;;;5039041;28;20460;-64
2023/07/05 01:03:58;;;;;;;15.10;14.40;;;16.70;99.90;;;;;;5032259;28;22688;-65
2023/07/05 01:06:27;;;;;;;14.70;14.10;;;16.70;99.90;;;;;;5037761;28;21010;-66
2023/07/05 01:08:54;;;;;;;14.20;13.60;;;16.80;99.90;;;;;;5033271;28;20459;-65
2023/07/05 01:11:28;;;;;;;14.43;13.83;;;16.80;99.90;;;;;;5032424;28;21006;-65
2023/07/05 01:14:00;;;;;;;15.57;14.87;;;16.80;99.90;;;;;;5034438;28;21033;-66
2023/07/05 01:16:40;;;;;;;14.17;13.57;;;16.80;99.90;;;;;;5041532;28;20515;-65
2023/07/05 01:19:45;;;;;;;13.70;13.10;;;16.80;99.90;;;;;;5046750;28;20459;-66
2023/07/05 01:22:21;;;;;;;15.90;14.70;;;16.80;99.90;;;;;;5023928;28;20486;-66
2023/07/05 01:25:13;;;;;;;14.60;14.00;;;16.80;99.90;;;;;;5043938;28;20949;-66
2023/07/05 01:27:59;;;;;;;15.37;14.67;;;16.80;99.90;;;;;;5033494;28;20486;-66
2023/07/05 01:31:18;;;;;;;13.70;13.10;;;16.80;99.90;;;;;;5040679;28;20467;-65
2023/07/05 01:33:55;;;;;;;13.63;13.03;;;16.80;99.90;;;;;;5032796;28;20632;-66
2023/07/05 01:36:23;;;;;;;13.90;13.30;;;16.70;99.90;;;;;;5037523;28;20478;-65
2023/07/05 01:38:50;;;;;;;13.50;12.90;;;16.80;99.90;;;;;;5045493;28;20474;-66
2023/07/05 01:41:17;;;;;;;18.63;14.10;;;16.80;99.90;;;;;;5035312;28;20971;-65
2023/07/05 01:43:45;;;;;;;13.90;13.30;;;16.80;99.90;;;;;;5044747;28;20821;-65
2023/07/05 01:46:33;;;;;;;13.83;13.23;;;16.90;99.90;;;;;;5043347;28;20888;-66
2023/07/05 01:49:22;;;;;;;17.33;14.60;;;16.90;99.90;;;;;;5031213;28;20857;-65
2023/07/05 01:51:55;;;;;;;15.23;14.53;;;17.00;99.90;;;;;;5035683;28;20463;-65
2023/07/05 01:54:28;;;;;;;14.60;13.90;;;17.00;99.90;;;;;;5034985;28;20764;-66
2023/07/05 01:56:58;;;;;;;16.53;15.53;;;17.00;99.90;;;;;;5036552;28;20472;-66
2023/07/05 01:59:30;;;;;;;13.90;13.30;;;17.00;99.90;;;;;;5044234;28;20460;-65
2023/07/05 02:01:59;;;;;;;13.63;13.03;;;17.00;99.90;;;;;;5038582;28;20943;-66
2023/07/05 02:04:29;;;;;;;14.70;14.00;;;17.00;99.90;;;;;;5045587;28;20474;-66
2023/07/05 02:06:56;;;;;;;13.97;13.37;;;17.10;99.90;;;;;;5043258;28;20579;-66
2023/07/05 02:09:23;;;;;;;13.50;12.80;;;17.00;99.90;;;;;;5028639;28;20764;-64
2023/07/05 02:11:51;;;;;;;12.33;11.83;;;16.90;99.90;;;;;;5039505;28;20467;-65
2023/07/05 02:14:18;;;;;;;12.50;11.90;;;16.90;99.90;;;;;;5038673;28;20983;-66
2023/07/05 02:16:44;;;;;;;12.37;11.73;;;16.90;99.90;;;;;;5038328;28;20850;-67
2023/07/05 02:19:12;;;;;;;12.93;12.40;;;16.80;99.90;;;;;;5038395;28;20468;-65
2023/07/05 02:21:41;;;;;;;12.97;12.07;;;16.80;99.90;;;;;;5038869;28;20975;-66
2023/07/05 02:24:08;;;;;;;11.97;11.47;;;16.70;99.90;;;;;;5035582;28;20460;-66
2023/07/05 02:26:35;;;;;;;11.77;10.20;;;16.70;99.90;;;;;;5036772;28;20604;-66
2023/07/05 02:29:02;;;;;;;11.63;11.03;;;16.70;99.90;;;;;;5038043;28;20738;-66
2023/07/05 02:31:29;;;;;;;11.97;11.27;;;16.70;99.90;;;;;;5043711;28;21044;-66
2023/07/05 02:33:56;;;;;;;10.50;10.10;;;16.60;99.90;;;;;;5047605;28;20570;-64
2023/07/05 02:36:23;;;;;;;10.40;10.00;;;16.60;99.90;;;;;;5044937;28;20881;-65
2023/07/05 02:38:53;;;;;;;10.60;10.10;;;16.60;99.90;;;;;;5034833;28;20887;-65
2023/07/05 02:41:20;;;;;;;10.20;9.80;;;16.60;99.90;;;;;;5037972;28;20459;-65
2023/07/05 02:43:48;;;;;;;10.70;10.23;;;16.60;99.90;;;;;;5036052;28;20567;-65
2023/07/05 02:46:14;;;;;;;13.17;12.57;;;16.50;99.90;;;;;;5039936;28;21037;-66
2023/07/05 02:48:42;;;;;;;12.90;12.30;;;16.20;99.90;;;;;;5045972;28;20766;-66
2023/07/05 02:51:09;;;;;;;14.80;14.10;;;16.20;99.90;;;;;;5048860;28;20816;-65
2023/07/05 02:53:36;;;;;;;15.67;14.67;;;16.00;99.90;;;;;;5035729;28;20869;-66
2023/07/05 02:56:05;;;;;;;15.20;14.40;;;15.70;99.90;;;;;;5043890;28;20470;-65
2023/07/05 02:58:31;;;;;;;15.70;14.90;;;15.40;99.90;;;;;;5040470;28;20472;-66
2023/07/05 03:00:58;;;;;;;15.20;14.40;;;15.20;99.90;;;;;;5039875;28;20456;-65
2023/07/05 03:03:26;;;;;;;15.33;14.53;;;15.10;99.90;;;;;;5038961;28;21027;-66
2023/07/05 03:05:57;;;;;;;15.00;14.20;;;15.00;99.90;;;;;;5048217;28;20471;-66
2023/07/05 03:08:25;;;;;;;13.93;13.13;;;15.00;99.90;;;;;;5042998;28;20496;-65
2023/07/05 03:10:54;;;;;;;15.00;14.20;;;15.00;99.90;;;;;;5047171;28;20551;-65
2023/07/05 03:13:23;;;;;;;14.50;13.80;;;14.90;99.90;;;;;;5038670;28;20576;-66
2023/07/05 03:15:50;;;;;;;15.17;14.30;;;14.90;99.90;;;;;;5035607;28;20484;-65
2023/07/05 03:18:17;;;;;;;13.83;13.13;;;14.90;99.90;;;;;;5044722;28;20467;-66
2023/07/05 03:20:45;;;;;;;14.40;13.60;;;14.80;99.90;;;;;;5034899;28;20855;-65
2023/07/05 03:23:12;;;;;;;14.10;13.40;;;14.80;99.90;;;;;;5040410;28;20465;-66
2023/07/05 03:25:39;;;;;;;14.03;13.23;;;14.70;99.90;;;;;;5043740;28;20508;-66
2023/07/05 03:28:07;;;;;;;13.83;13.13;;;14.60;99.90;;;;;;5037257;28;20495;-66
2023/07/05 03:30:36;;;;;;;13.67;12.97;;;14.60;99.90;;;;;;5035989;28;20486;-66
2023/07/05 03:33:04;;;;;;;13.50;12.70;;;14.50;99.90;;;;;;5041200;28;20882;-67
2023/07/05 03:35:31;;;;;;;15.20;14.30;;;14.50;99.90;;;;;;5041634;28;20842;-65
2023/07/05 03:37:58;;;;;;;14.77;13.97;;;14.50;99.90;;;;;;5047984;28;20546;-67
2023/07/05 03:40:25;;;;;;;14.37;13.30;;;14.60;99.90;;;;;;5045413;28;20472;-67
2023/07/05 03:42:52;;;;;;;14.13;13.43;;;14.50;99.90;;;;;;5032870;28;20460;-65
2023/07/05 03:45:19;;;;;;;12.13;11.63;;;14.50;99.90;;;;;;5043292;28;20879;-66
2023/07/05 03:47:47;;;;;;;12.73;12.13;;;14.40;99.90;;;;;;5036861;28;20852;-66
2023/07/05 03:50:14;;;;;;;12.33;11.73;;;14.30;99.90;;;;;;5041375;28;20472;-66
2023/07/05 03:52:42;;;;;;;12.53;11.83;;;14.30;99.90;;;;;;5042937;28;20459;-66
2023/07/05 03:55:10;;;;;;;11.90;11.40;;;14.20;99.90;;;;;;5043674;28;20452;-66
2023/07/05 03:57:37;;;;;;;11.73;11.23;;;14.20;99.90;;;;;;5038708;28;20467;-67
2023/07/05 04:00:04;;;;;;;13.60;12.23;;;14.20;99.90;;;;;;5043840;28;20990;-66
2023/07/05 04:02:32;;;;;;;13.50;12.40;;;14.10;99.90;;;;;;5041376;28;20448;-67
2023/07/05 04:05:00;;;;;;;12.27;11.57;;;14.00;99.90;;;;;;5041099;28;20476;-66
2023/07/05 04:07:29;;;;;;;12.70;11.77;;;14.00;99.90;;;;;;5031299;28;20519;-67
2023/07/05 04:09:56;;;;;;;11.90;11.30;;;14.00;99.90;;;;;;5039297;28;20464;-67
2023/07/05 04:12:23;;;;;;;11.97;11.47;;;14.10;99.90;;;;;;5042735;28;20468;-67
2023/07/05 04:14:50;;;;;;;13.37;12.20;;;14.20;99.90;;;;;;5039156;28;20491;-66
2023/07/05 04:17:16;;;;;;;13.20;12.50;;;14.30;99.90;;;;;;5033356;28;20499;-66
2023/07/05 04:19:44;;;;;;;13.83;13.13;;;14.40;99.90;;;;;;5034160;28;20844;-66
2023/07/05 04:22:12;;;;;;;12.50;12.00;;;14.40;99.90;;;;;;5046585;28;20474;-66
2023/07/05 04:24:39;;;;;;;13.77;13.10;;;14.40;99.90;;;;;;5047120;28;20452;-66
2023/07/05 04:27:06;;;;;;;13.17;12.37;;;14.50;99.90;;;;;;5042898;28;20483;-67
2023/07/05 04:29:34;;;;;;;14.13;13.30;;;14.60;99.90;;;;;;5042305;28;20541;-67
2023/07/05 04:32:00;;;;;;;15.60;14.60;;;14.60;99.90;;;;;;5040431;28;20463;-67
2023/07/05 04:34:28;;;;;;;15.00;14.20;;;14.70;99.90;;;;;;5042487;28;21030;-68
2023/07/05 04:36:55;;;;;;;15.10;14.20;;;14.70;99.90;;;;;;5040157;28;20877;-67
2023/07/05 04:39:23;;;;;;;14.67;13.87;;;14.80;99.90;;;;;;5031505;28;20464;-68
2023/07/05 04:41:50;;;;;;;16.17;15.07;;;14.70;99.90;;;;;;5038630;28;20460;-66
2023/07/05 04:44:17;;;;;;;15.43;14.53;;;14.60;99.90;;;;;;5042657;28;20793;-67
2023/07/05 04:46:45;;;;;;;15.60;14.80;;;14.60;99.90;;;;;;5040279;28;20870;-67
2023/07/05 04:49:12;;;;;;;15.10;14.30;;;14.60;99.90;;;;;;5038485;28;20481;-68
2023/07/05 04:51:39;;;;;;;15.07;14.37;;;14.80;99.90;;;;;;5037852;28;20491;-67
2023/07/05 04:54:06;;;;;;;14.50;13.80;;;14.90;99.90;;;;;;5046798;28;21175;-67
2023/07/05 04:56:34;;;;;;;13.87;13.27;;;15.00;99.90;;;;;;5043090;28;20836;-67
2023/07/05 04:59:01;;;;;;;13.40;12.77;;;15.00;99.90;;;;;;5035950;28;20583;-67
2023/07/05 05:01:29;;;;;;;13.93;12.70;;;15.10;99.90;;;;;;5035101;28;20457;-67
2023/07/05 05:03:55;;;;;;;15.07;13.87;;;15.10;99.90;;;;;;5026778;28;20464;-67
2023/07/05 05:06:22;;;;;;;13.03;12.40;;;15.20;99.90;;;;;;5036069;28;20464;-67
2023/07/05 05:08:50;;;;;;;14.97;13.77;;;15.20;99.90;;;;;;5038268;28;20533;-67
2023/07/05 05:11:17;;;;;;;14.80;13.80;;;15.10;99.90;;;;;;5041568;28;20543;-67
2023/07/05 05:13:46;;;;;;;14.90;14.20;;;15.10;99.90;;;;;;5041306;28;20469;-67
2023/07/05 05:16:13;;;;;;;15.00;14.20;;;15.20;99.90;;;;;;5032119;28;20485;-66
2023/07/05 05:18:41;;;;;;;17.07;15.83;;;15.20;99.90;;;;;;5043946;28;20455;-67
2023/07/05 05:21:09;;;;;;;14.63;13.97;;;15.10;99.90;;;;;;5031907;28;20491;-67
2023/07/05 05:23:36;;;;;;;15.60;14.70;;;15.20;99.90;;;;;;5038528;28;20463;-68
2023/07/05 05:26:03;;;;;;;15.43;14.53;;;15.20;99.90;;;;;;5038906;28;20873;-68
2023/07/05 05:28:30;;;;;;;15.50;14.60;;;15.20;99.90;;;;;;5039835;28;20723;-68
2023/07/05 05:31:09;;;;;;;16.63;15.60;;;15.10;99.90;;;;;;5032219;28;20572;-67
2023/07/05 05:33:36;;;;;;;15.60;14.70;;;15.00;99.90;;;;;;5041695;28;20467;-67
2023/07/05 05:36:04;;;;;;;14.70;14.00;;;15.00;99.90;;;;;;5040907;28;20769;-66
2023/07/05 05:38:31;;;;;;;16.30;15.30;;;15.00;99.90;;;;;;5031498;28;20468;-67
2023/07/05 05:41:03;;;;;;;14.30;13.70;;;15.00;99.90;;;;;;5036343;28;20464;-68
2023/07/05 05:43:30;;;;;;;15.40;14.63;;;15.00;99.90;;;;;;5042967;28;20455;-67
2023/07/05 05:45:56;;;;;;;14.67;14.00;;;14.90;99.90;;;;;;5031979;28;20472;-68
2023/07/05 05:48:25;;;;;;;13.80;13.10;;;14.90;99.90;;;;;;5034978;28;20491;-67
2023/07/05 05:50:53;;;;;;;14.17;13.37;;;14.80;99.90;;;;;;5043139;28;20483;-68
2023/07/05 05:53:19;;;;;;;14.63;13.93;;;14.90;99.90;;;;;;5031736;28;20906;-67
2023/07/05 05:55:46;;;;;;;15.43;14.60;;;14.80;99.90;;;;;;5033511;28;20981;-69
2023/07/05 05:58:13;;;;;;;16.83;15.57;;;14.90;99.90;;;;;;5035553;28;20460;-69
2023/07/05 06:00:40;;;;;;;14.73;14.03;;;14.90;99.90;;;;;;5042065;28;20461;-67
2023/07/05 06:03:07;;;;;;;15.73;14.83;;;14.90;99.90;;;;;;5040628;28;20800;-68
2023/07/05 06:05:36;;;;;;;16.07;15.13;;;14.90;99.90;;;;;;5043982;28;20898;-67
2023/07/05 06:08:04;;;;;;;15.97;14.93;;;14.90;99.90;;;;;;5043568;28;20931;-68
2023/07/05 06:10:31;;;;;;;16.10;15.00;;;14.90;99.90;;;;;;5039939;28;20959;-68
2023/07/05 06:12:59;;;;;;;15.93;15.13;;;15.00;99.90;;;;;;5037199;28;20464;-66
2023/07/05 06:15:26;;;;;;;16.53;15.27;;;15.10;99.90;;;;;;5042849;28;21333;-69
2023/07/05 06:17:53;;;;;;;15.40;14.60;;;15.30;99.90;;;;;;5040253;28;20476;-67
2023/07/05 06:20:23;;;;;;;14.70;14.00;;;15.20;99.90;;;;;;5047536;28;20482;-68
2023/07/05 06:22:51;;;;;;;14.90;14.20;;;15.20;99.90;;;;;;5035797;28;20517;-67
2023/07/05 06:25:18;;;;;;;16.60;15.30;;;15.30;99.90;;;;;;5038369;28;20527;-68
2023/07/05 06:27:45;;;;;;;16.27;15.37;;;15.30;99.90;;;;;;5034558;28;20558;-68
2023/07/05 06:30:12;;;;;;;14.50;13.80;;;15.30;99.90;;;;;;5040183;28;20981;-69
2023/07/05 06:32:39;;;;;;;15.80;14.70;;;15.40;99.90;;;;;;5036721;28;20981;-67
2023/07/05 06:35:07;;;;;;;15.00;14.30;;;15.60;99.90;;;;;;5030572;28;20459;-68
2023/07/05 06:37:35;;;;;;;16.00;15.10;;;15.60;99.90;;;;;;5029858;28;20457;-68
2023/07/05 06:40:04;;;;;;;16.00;15.10;;;15.60;99.90;;;;;;5031399;28;20469;-67
2023/07/05 06:42:31;;;;;;;15.07;14.37;;;15.60;99.90;;;;;;5045945;28;20989;-68
2023/07/05 06:44:57;;;;;;;15.17;14.27;;;15.60;99.90;;;;;;5037980;28;20469;-69
2023/07/05 06:47:24;;;;;;;14.87;14.17;;;15.60;99.90;;;;;;5038178;28;20456;-67
2023/07/05 06:49:51;;;;;;;15.37;14.57;;;15.50;99.90;;;;;;5032168;28;20481;-68
2023/07/05 06:52:18;;;;;;;15.27;14.57;;;15.60;99.90;;;;;;5038117;28;20464;-68
2023/07/05 06:54:45;;;;;;;15.97;14.87;;;15.60;99.90;;;;;;5039412;28;20457;-68
2023/07/05 06:57:13;;;;;;;15.23;14.33;;;15.70;99.90;;;;;;5045049;28;20547;-68
2023/07/05 06:59:43;;;;;;;15.47;14.77;;;15.80;99.90;;;;;;5034024;28;20555;-68
2023/07/05 07:02:11;;;;;;;15.70;14.90;;;15.80;99.90;;;;;;5034512;28;20459;-69
2023/07/05 07:04:37;;;;;;;17.47;15.83;;;15.70;99.90;;;;;;5038118;28;21024;-68
2023/07/05 07:07:05;;;;;;;14.60;13.90;;;15.60;99.90;;;;;;5035129;28;20459;-68
2023/07/05 07:09:33;;;;;;;14.70;13.97;;;15.80;99.90;;;;;;5045763;28;20565;-69
2023/07/05 07:12:00;;;;;;;15.10;14.40;;;15.90;99.90;;;;;;5037500;28;20474;-68
2023/07/05 07:14:29;;;;;;;14.67;13.97;;;16.00;99.90;;;;;;5043000;28;20460;-69
2023/07/05 07:16:56;;;;;;;14.90;14.20;;;15.90;99.90;;;;;;5041845;28;20474;-69
2023/07/05 07:19:22;;;;;;;15.10;14.40;;;15.70;99.90;;;;;;5039330;28;20462;-67
2023/07/05 07:21:49;;;;;;;15.53;14.63;;;15.80;99.90;;;;;;5044409;28;20575;-68
2023/07/05 07:24:16;;;;;;;16.33;15.43;;;15.70;99.90;;;;;;5029635;28;20855;-68
2023/07/05 07:26:43;;;;;;;15.67;14.77;;;15.60;99.90;;;;;;5044264;28;20459;-67
2023/07/05 07:29:11;;;;;;;15.80;14.90;;;15.70;99.90;;;;;;5038832;28;20496;-67
2023/07/05 07:31:40;;;;;;;16.00;15.10;;;15.70;99.90;;;;;;5039448;28;20473;-67
2023/07/05 07:34:08;;;;;;;15.17;14.17;;;15.70;99.90;;;;;;5040520;28;20513;-68
2023/07/05 07:36:36;;;;;;;15.70;14.60;;;16.00;99.90;;;;;;5042506;28;20488;-68
2023/07/05 07:39:04;;;;;;;14.90;14.20;;;16.10;99.90;;;;;;5032441;28;20814;-68
2023/07/05 07:41:33;;;;;;;14.80;13.90;;;16.00;99.90;;;;;;5038442;28;20479;-66
2023/07/05 07:44:01;;;;;;;15.00;14.20;;;15.70;99.90;;;;;;5040482;28;20478;-67
2023/07/05 07:46:31;;;;;;;14.87;14.10;;;15.60;99.90;;;;;;5039261;28;20459;-68
2023/07/05 07:49:01;;;;;;;14.90;14.20;;;15.70;99.90;;;;;;5042740;28;21057;-67
2023/07/05 07:51:31;;;;;;;15.33;14.53;;;15.80;99.90;;;;;;5041112;28;20463;-68
2023/07/05 07:53:58;;;;;;;15.67;14.37;;;16.10;99.90;;;;;;5036862;28;20465;-69
2023/07/05 07:56:27;;;;;;;15.83;14.93;;;16.20;99.90;;;;;;5043538;28;20466;-68
2023/07/05 07:58:57;;;;;;;15.90;15.10;;;16.40;99.90;;;;;;5038333;28;20459;-69
2023/07/05 08:01:27;;;;;;;15.70;14.90;;;16.60;99.90;;;;;;5036116;28;20460;-68
2023/07/05 08:03:55;;;;;;;15.40;14.70;;;16.70;99.90;;;;;;5036143;28;20821;-69
2023/07/05 08:06:29;;;;;;;15.50;14.70;;;16.90;99.90;;;;;;5036920;28;20883;-68
2023/07/05 08:08:56;;;;;;;15.80;15.00;;;17.00;99.90;;;;;;5043332;28;21017;-67
2023/07/05 08:11:23;;;;;;;16.27;15.27;;;17.20;99.90;;;;;;5036694;28;20468;-67
2023/07/05 08:13:50;;;;;;;15.80;15.00;;;17.30;99.90;;;;;;5031247;28;20550;-64
2023/07/05 08:16:19;;;;;;;16.80;15.80;;;17.70;99.90;;;;;;5037394;28;20503;-66
2023/07/05 08:18:46;;;;;;;16.00;15.10;;;17.60;99.90;;;;;;5042032;28;21268;-66
2023/07/05 08:21:14;;;;;;;16.57;15.67;;;17.70;99.90;;;;;;5032481;28;20460;-67
2023/07/05 08:23:43;;;;;;;16.93;15.83;;;17.40;99.90;;;;;;5041273;28;20460;-66
2023/07/05 08:26:10;;;;;;;16.23;15.43;;;17.50;99.90;;;;;;5040577;28;20467;-67
2023/07/05 08:28:38;;;;;;;16.03;15.23;;;17.50;99.90;;;;;;5040123;28;20540;-66
2023/07/05 08:31:06;;;;;;;16.77;15.77;;;17.60;99.90;;;;;;5039978;28;20475;-67
2023/07/05 08:33:35;;;;;;;15.80;15.10;;;17.50;99.90;;;;;;5037394;28;20475;-66
2023/07/05 08:36:18;;;;;;;16.10;15.20;;;17.60;99.90;;;;;;5043280;28;20593;-67
2023/07/05 08:38:50;;;;;;;16.93;16.07;;;17.60;99.90;;;;;;5041654;28;20913;-65
2023/07/05 08:41:38;;;;;;;15.80;15.00;;;17.60;99.90;;;;;;5036847;28;20518;-65
2023/07/05 08:44:14;;;;;;;16.30;15.40;;;17.80;99.90;;;;;;5042508;28;20467;-66
2023/07/05 08:46:42;;;;;;;17.53;16.00;;;17.70;99.90;;;;;;5039554;28;20941;-67
2023/07/05 08:49:16;;;;;;;16.40;15.60;;;17.80;99.90;;;;;;5036492;28;21125;-67
2023/07/05 08:51:43;;;;;;;17.87;15.87;;;17.70;99.90;;;;;;5036914;28;20480;-67
2023/07/05 08:54:13;;;;;;;16.10;15.30;;;17.60;99.90;;;;;;5038134;28;20891;-67
2023/07/05 08:56:46;;;;;;;17.57;16.33;;;17.50;99.90;;;;;;5033150;28;20559;-65
2023/07/05 08:59:23;;;;;;;16.17;15.20;;;17.70;99.90;;;;;;5028416;28;20469;-67
2023/07/05 09:01:55;;;;;;;16.67;15.60;;;17.80;99.90;;;;;;5039489;28;21009;-66
2023/07/05 09:04:25;;;;;;;17.10;16.10;;;18.20;99.90;;;;;;5034762;28;20994;-66
2023/07/05 09:06:57;;;;;;;16.90;16.10;;;18.30;99.90;;;;;;5046006;28;20455;-68
2023/07/05 09:09:43;;;;;;;17.13;16.03;;;18.70;99.90;;;;;;5032929;28;20571;-67
2023/07/05 09:12:21;;;;;;;17.20;15.80;;;18.70;99.90;;;;;;5039358;28;20463;-66
2023/07/05 09:15:07;;;;;;;17.00;15.60;;;19.10;99.90;;;;;;5035350;28;20485;-67
2023/07/05 09:17:49;;;;;;;17.17;16.03;;;18.80;99.90;;;;;;5039036;28;20471;-68
2023/07/05 09:20:28;;;;;;;16.83;15.77;;;18.70;99.90;;;;;;5033748;28;20467;-67
2023/07/05 09:22:57;;;;;;;17.23;15.97;;;19.30;99.90;;;;;;5033776;28;20464;-67
2023/07/05 09:25:26;;;;;;;16.93;16.10;;;19.30;99.90;;;;;;5030707;28;20467;-68
2023/07/05 09:28:01;;;;;;;16.90;16.10;;;19.00;99.90;;;;;;5037336;28;20456;-68
2023/07/05 09:30:29;;;;;;;18.00;16.50;;;19.30;99.90;;;;;;5035669;28;20487;-67
2023/07/05 09:33:04;;;;;;;16.30;15.50;;;19.60;99.90;;;;;;5038542;28;20460;-68
2023/07/05 09:35:36;;;;;;;17.10;16.20;;;19.50;99.90;;;;;;5040087;28;20456;-67
2023/07/05 09:38:11;;;;;;;17.20;16.13;;;19.30;99.90;;;;;;5035500;28;20785;-67
2023/07/05 09:40:43;;;;;;;18.53;17.27;;;19.10;99.90;;;;;;5040903;28;20455;-67
2023/07/05 09:43:14;;;;;;;15.97;15.27;;;18.80;99.90;;;;;;5040288;28;20471;-68
2023/07/05 09:45:40;;;;;;;16.33;15.17;;;18.60;99.90;;;;;;5037787;28;20456;-67
2023/07/05 09:48:12;;;;;;;16.40;15.37;;;18.70;99.90;;;;;;5043338;28;20776;-67
2023/07/05 09:50:46;;;;;;;16.83;15.83;;;19.60;99.90;;;;;;5042989;28;20499;-68
2023/07/05 09:53:27;;;;;;;18.47;17.07;;;20.10;99.90;;;;;;5037615;28;20475;-67
2023/07/05 09:56:08;;;;;;;17.43;15.83;;;19.60;99.90;;;;;;5043220;28;20472;-67
2023/07/05 09:58:36;;;;;;;16.53;15.63;;;20.10;99.90;;;;;;5038494;28;20519;-68
2023/07/05 10:01:05;;;;;;;17.47;16.40;;;20.10;99.90;;;;;;5037479;28;20491;-68
2023/07/05 10:03:35;;;;;;;17.53;16.53;;;20.60;99.90;;;;;;5039958;28;20550;-68
2023/07/05 10:06:07;;;;;;;17.50;15.90;;;21.10;99.90;;;;;;5036720;28;20514;-68
2023/07/05 10:08:43;;;;;;;16.10;15.40;;;21.20;99.90;;;;;;5040946;28;20505;-68
2023/07/05 10:11:23;;;;;;;16.40;15.50;;;21.10;99.90;;;;;;5037093;28;20491;-69
2023/07/05 10:14:03;;;;;;;18.33;16.97;;;21.40;99.90;;;;;;5034052;28;20471;-68
2023/07/05 10:16:49;;;;;;;16.70;15.90;;;21.30;99.90;;;;;;5034975;28;20583;-68
2023/07/05 10:19:23;;;;;;;16.20;15.50;;;21.60;99.90;;;;;;5040244;28;21022;-69
2023/07/05 10:21:54;;;;;;;16.77;16.00;;;22.10;99.90;;;;;;5031843;28;20466;-67
2023/07/05 10:24:21;;;;;;;18.03;16.80;;;22.20;99.90;;;;;;5036431;28;20452;-68
2023/07/05 10:27:02;;;;;;;19.40;17.67;;;21.30;99.90;;;;;;5034830;28;20461;-68
2023/07/05 10:29:30;;;;;;;16.67;15.40;;;21.00;99.90;;;;;;5045228;28;20491;-68
2023/07/05 10:31:59;;;;;;;17.70;16.53;;;22.10;99.90;;;;;;5040609;28;20880;-68
2023/07/05 10:34:27;;;;;;;17.27;16.37;;;21.50;99.90;;;;;;5037911;28;20576;-68
2023/07/05 10:36:55;;;;;;;16.80;16.10;;;20.90;99.90;;;;;;5043965;28;20461;-68
2023/07/05 10:39:24;;;;;;;17.07;16.17;;;20.70;99.90;;;;;;5041553;28;20833;-67
2023/07/05 10:41:58;;;;;;;18.07;17.07;;;21.00;99.90;;;;;;5044600;28;20545;-67
2023/07/05 10:44:32;;;;;;;17.00;16.10;;;21.20;99.90;;;;;;5039731;28;20479;-68
2023/07/05 10:47:00;;;;;;;17.57;16.37;;;21.60;99.90;;;;;;5040663;28;20472;-68
2023/07/05 10:49:30;;;;;;;17.57;16.77;;;22.00;99.90;;;;;;5042293;28;20861;-67
2023/07/05 10:52:01;;;;;;;16.77;15.97;;;22.00;99.90;;;;;;5048979;28;20509;-68
2023/07/05 10:54:44;;;;;;;18.47;17.47;;;22.00;99.90;;;;;;5042736;28;20471;-69
2023/07/05 10:57:18;;;;;;;16.70;15.90;;;21.90;99.90;;;;;;5038867;28;20460;-67
2023/07/05 10:59:51;;;;;;;17.43;16.43;;;22.00;99.90;;;;;;5041150;28;20449;-67
2023/07/05 11:02:33;;;;;;;17.30;16.50;;;21.40;99.90;;;;;;5042906;28;20457;-67
2023/07/05 11:05:01;;;;;;;17.77;16.73;;;21.40;99.90;;;;;;5034216;28;20871;-68
2023/07/05 11:07:32;;;;;;;18.13;17.13;;;21.30;99.90;;;;;;5041360;28;20460;-69
2023/07/05 11:09:59;;;;;;;16.57;15.67;;;21.20;99.90;;;;;;5039088;28;20487;-67
2023/07/05 11:12:30;;;;;;;16.83;16.03;;;20.80;99.90;;;;;;5038163;28;20468;-67
2023/07/05 11:14:58;;;;;;;16.63;15.90;;;21.70;99.90;;;;;;5044423;28;20481;-67
2023/07/05 11:17:32;;;;;;;16.80;16.00;;;21.60;99.90;;;;;;5038080;28;21002;-67
2023/07/05 11:19:59;;;;;;;19.27;17.60;;;21.90;99.90;;;;;;5035122;28;20470;-68
2023/07/05 11:22:43;;;;;;;17.47;16.67;;;22.10;99.90;;;;;;5035501;28;20484;-67
2023/07/05 11:25:12;;;;;;;18.07;16.50;;;21.60;99.90;;;;;;5039548;28;21025;-67
2023/07/05 11:27:53;;;;;;;16.93;16.00;;;21.90;99.90;;;;;;5036521;28;20526;-68
2023/07/05 11:30:44;;;;;;;17.03;16.23;;;22.90;99.90;;;;;;5036449;28;21016;-67
2023/07/05 11:33:23;;;;;;;17.80;16.77;;;23.60;99.90;;;;;;5038270;28;20453;-67
2023/07/05 11:35:53;;;;;;;16.97;16.07;;;23.40;99.30;;;;;;5038297;28;20455;-67
2023/07/05 11:39:06;;;;;;;17.40;16.50;;;22.80;99.90;;;;;;5042137;28;20827;-67
2023/07/05 11:41:40;;;;;;;18.93;16.80;;;22.20;99.90;;;;;;5037161;28;20562;-66
2023/07/05 11:44:24;;;;;;;17.50;16.40;;;21.40;99.90;;;;;;5033525;28;20463;-68
2023/07/05 11:46:54;;;;;;;17.37;16.23;;;20.90;99.90;;;;;;5036324;28;20496;-67
2023/07/05 11:49:28;;;;;;;16.73;15.73;;;20.30;99.90;;;;;;5035561;28;20582;-67
2023/07/05 11:51:59;;;;;;;59.67;17.70;;;19.90;99.90;;;;;;5041421;28;20464;-67
2023/07/05 11:54:36;;;;;;;16.97;15.97;;;19.60;99.90;;;;;;5042072;28;20793;-67
2023/07/05 11:57:06;;;;;;;17.00;16.20;;;20.60;99.90;;;;;;5039316;28;20909;-67
2023/07/05 11:59:37;;;;;;;16.63;15.73;;;21.20;99.90;;;;;;5034986;28;20496;-67
2023/07/05 12:02:16;;;;;;;15.87;15.17;;;21.50;99.90;;;;;;5035162;28;20560;-67
2023/07/05 12:04:46;;;;;;;16.80;15.90;;;21.40;99.90;;;;;;5038858;28;20487;-67
2023/07/05 12:07:13;;;;;;;15.60;14.90;;;21.50;99.90;;;;;;5043778;28;20455;-67
2023/07/05 12:09:44;;;;;;;16.70;15.77;;;22.20;99.90;;;;;;5038727;28;21069;-67
2023/07/05 12:12:13;;;;;;;17.97;16.70;;;23.40;99.90;;;;;;5033762;28;20547;-66
2023/07/05 12:14:42;;;;;;;17.60;16.40;;;23.80;99.90;;;;;;5042664;28;20551;-66
2023/07/05 12:17:20;;;;;;;16.63;15.83;;;23.60;99.90;;;;;;5069234;27;20545;-66
2023/07/05 12:19:50;;;;;;;18.23;16.77;;;23.80;99.90;;;;;;5064539;28;20536;-65
2023/07/05 12:22:25;;;;;;;16.50;15.70;;;23.50;99.90;;;;;;5063089;28;20700;-66
2023/07/05 12:24:56;;;;;;;17.23;16.10;;;23.40;99.90;;;;;;5063542;28;20546;-66
2023/07/05 12:27:25;;;;;;;17.43;16.10;;;23.00;99.90;;;;;;5069207;28;20564;-66
2023/07/05 12:29:54;;;;;;;16.60;15.73;;;22.70;99.90;;;;;;5066913;28;20459;-66
2023/07/05 12:32:24;;;;;;;17.43;15.77;;;22.20;99.90;;;;;;5063891;28;20455;-67
2023/07/05 12:35:15;;;;;;;16.20;15.20;;;21.90;99.90;;;;;;5062982;28;20554;-65
2023/07/05 12:37:42;;;;;;;16.93;15.97;;;21.50;99.90;;;;;;5058927;28;20463;-66
2023/07/05 12:40:18;;;;;;;16.20;15.13;;;21.10;99.90;;;;;;5070557;28;20832;-66
2023/07/05 12:42:50;;;;;;;17.17;16.10;;;21.00;99.90;;;;;;5071479;28;20459;-65
2023/07/05 12:45:19;;;;;;;16.10;15.40;;;21.40;99.90;;;;;;5065791;28;21132;-65